Reklama
Líbí se Vám tento web? Budeme velmi rádi, pokud přidáte hodnocení +1

Seznam meteostanic a jejich METAR

Vyhledat místa podle abecedy:
A B C D E F G H I J K L M N O P Q R S T U V W X Y Z

Filtrovat:

ID stanice:
a/nebo
Název místa (fulltext):
 
Místo (ID)Naposledy načteno 
Gaborone (FBSK) 20.06.2018 23:00 UTC Zobrazit METAR
FBSK 202300Z 11006KT CAVOK 10/01 Q1026 NOSIG
Gaza (LVGZ) Zatím nenačteno  
Geneva (LSGG) 21.06.2018 01:50 UTC Zobrazit METAR
LSGG 210150Z AUTO VRB01KT CAVOK 18/17 Q1019 NOSIG
George Town (MWCR) 21.06.2018 02:00 UTC Zobrazit METAR
MWCR 210200Z 09005KT 9999 FEW018 28/26 Q1014
Georgetown (SYCJ) 21.06.2018 02:00 UTC Zobrazit METAR
SYCJ 210200Z VRB02KT 9999 FEW016 24/23 Q1016 NOSIG
Gibraltar (LXGB) 21.06.2018 01:50 UTC Zobrazit METAR
LXGB 210150Z AUTO 07011KT 9999 // OVC140/// 21/17 Q1016
Glasgow (EGPF) 21.06.2018 00:50 UTC Zobrazit METAR
EGPF 210050Z AUTO 29013KT 9999 BKN029 09/05 Q1020
Gomel (UMGG) 30.08.2014 17:00 UTC Zobrazit METAR
UMGG 301700Z CAVOK 19/10 Q1017 R28/CLRD// NOSIG
Goteborg (ESGG) 21.06.2018 01:50 UTC Zobrazit METAR
ESGG 210150Z 21011KT 8000 BKN008 OVC010 11/10 Q1004
Grand Turk Island (MBGT) 30.08.2017 15:00 UTC Zobrazit METAR
MBGT 301500Z 12011KT 9999 SCT015 30/26 Q1016
Graz (LOWG) 21.06.2018 01:50 UTC Zobrazit METAR
LOWG 210150Z AUTO 10002KT 9999 NSC 16/14 Q1018
Grodno (UMMG) Zatím nenačteno  
Guatemala City (MGGT) 21.06.2018 02:00 UTC Zobrazit METAR
MGGT 210200Z 19006KT 8000 SCT014 OVC100 19/17 Q1024 A3024 BR CB/LTNG DIST S
Reklama

Počasí na Váš email

Emaily jsou bez reklamy a bez spamu



Odhlásit newsletter

Reklama


Lunární kalendář

  • 28.06.
  • 06.07.
  • 13.07.
  • 19.07.



Slunečno.cz na Google+

Reklama


Reklama
Povinné ručení
Reklama




Reklama